Time;durP1;ratioP1;P1;durP2;ratioP2;P2;SDS_P1;SDS_P2;PMS_P1;PMS_P2;Temp;Humidity;BMP_temperature;BMP_pressure;BME280_temperature;BME280_humidity;BME280_pressure;Samples;Min_cycle;Max_cycle;Signal;HPM_P1;HPM_P2
2021/12/07 00:01:19;;;;;;;16.27;11.87;;;0.60;99.90;;;;;;5133131;27;20100;-73
2021/12/07 00:03:47;;;;;;;17.37;10.60;;;0.60;99.90;;;;;;5132664;27;20105;-72
2021/12/07 00:06:16;;;;;;;18.90;13.60;;;0.60;99.90;;;;;;5132126;27;20099;-73
2021/12/07 00:08:43;;;;;;;15.87;10.23;;;0.50;99.90;;;;;;5132605;27;20437;-73
2021/12/07 00:11:11;;;;;;;20.53;12.20;;;0.50;99.90;;;;;;5132622;27;20111;-74
2021/12/07 00:13:39;;;;;;;18.17;12.07;;;0.50;99.90;;;;;;5132481;27;20070;-74
2021/12/07 00:16:09;;;;;;;15.03;10.50;;;0.50;99.90;;;;;;5132227;27;20088;-72
2021/12/07 00:18:37;;;;;;;21.50;12.03;;;0.50;99.90;;;;;;5132763;27;20054;-73
2021/12/07 00:21:06;;;;;;;16.83;10.37;;;0.50;99.90;;;;;;5132548;27;20456;-73
2021/12/07 00:23:35;;;;;;;16.73;12.20;;;0.40;99.90;;;;;;5132609;27;20088;-73
2021/12/07 00:26:01;;;;;;;17.37;11.30;;;0.40;99.90;;;;;;5131813;27;20051;-72
2021/12/07 00:28:28;;;;;;;25.13;12.37;;;0.40;99.90;;;;;;5132630;27;20048;-75
2021/12/07 00:30:57;;;;;;;16.03;11.70;;;0.40;99.90;;;;;;5132695;27;20092;-75
2021/12/07 00:33:37;;;;;;;13.63;10.37;;;0.40;99.90;;;;;;5132466;27;20415;-74
2021/12/07 00:36:05;;;;;;;16.87;11.37;;;0.40;99.90;;;;;;5131928;27;20051;-74
2021/12/07 00:38:32;;;;;;;17.50;11.00;;;0.30;99.90;;;;;;5132128;27;20544;-75
2021/12/07 00:41:01;;;;;;;27.93;12.53;;;0.20;99.90;;;;;;5132632;27;20465;-75
2021/12/07 00:43:29;;;;;;;15.67;10.30;;;0.10;99.90;;;;;;5132459;27;20462;-76
2021/12/07 00:45:58;;;;;;;19.97;11.00;;;0.00;99.90;;;;;;5131587;27;20055;-75
2021/12/07 00:48:26;;;;;;;14.60;10.50;;;-0.10;99.90;;;;;;5132302;27;20051;-75
2021/12/07 00:50:54;;;;;;;15.40;11.83;;;-0.10;99.90;;;;;;5132027;27;20411;-74
2021/12/07 00:53:23;;;;;;;17.00;10.70;;;-0.20;99.90;;;;;;5132317;27;20558;-75
2021/12/07 00:55:52;;;;;;;15.67;11.20;;;-0.30;99.90;;;;;;5135019;27;20491;-74
2021/12/07 00:58:23;;;;;;;17.73;15.00;;;-0.40;99.90;;;;;;5135932;27;20491;-74
2021/12/07 01:00:53;;;;;;;24.50;13.13;;;-0.60;99.90;;;;;;5136083;27;20047;-75
2021/12/07 01:03:20;;;;;;;16.07;10.47;;;-0.60;99.90;;;;;;5135928;27;20092;-75
2021/12/07 01:05:51;;;;;;;16.40;10.13;;;-0.60;99.90;;;;;;5135302;27;20100;-74
2021/12/07 01:08:36;;;;;;;15.57;11.33;;;-0.70;99.90;;;;;;5135952;27;20047;-74
2021/12/07 01:24:45;;;;;;;18.03;10.33;;;-0.90;99.90;;;;;;5135115;27;20131;-73
2021/12/07 01:27:16;;;;;;;17.03;9.47;;;-1.00;99.90;;;;;;5135347;27;20459;-74
2021/12/07 01:29:45;;;;;;;17.70;11.57;;;-1.00;99.90;;;;;;5135625;27;20419;-75
2021/12/07 01:32:35;;;;;;;13.63;9.20;;;-1.00;99.90;;;;;;5135360;27;20047;-73
2021/12/07 01:38:02;;;;;;;18.70;13.03;;;-0.90;99.90;;;;;;5135289;27;20054;-74
2021/12/07 01:43:53;;;;;;;20.80;10.83;;;-0.90;99.90;;;;;;5109683;27;20219;-72
2021/12/07 01:52:25;;;;;;;14.23;9.43;;;-0.90;99.90;;;;;;5135262;27;20053;-72
2021/12/07 01:57:54;;;;;;;11.13;8.60;;;-1.00;99.90;;;;;;5108465;27;20039;-74
2021/12/07 02:00:27;;;;;;;14.03;10.13;;;-1.00;99.90;;;;;;5135425;27;20043;-74
2021/12/07 02:02:53;;;;;;;14.07;9.67;;;-1.00;99.90;;;;;;5134895;27;20043;-75
2021/12/07 02:05:22;;;;;;;15.77;8.53;;;-1.00;99.90;;;;;;5134219;27;20051;-75
2021/12/07 02:07:48;;;;;;;19.07;9.87;;;-1.10;99.90;;;;;;5134631;27;20399;-75
2021/12/07 02:10:16;;;;;;;16.93;10.87;;;-1.10;99.90;;;;;;5134931;27;20043;-73
2021/12/07 02:12:45;;;;;;;10.27;8.27;;;-1.10;99.90;;;;;;5134830;27;20478;-73
2021/12/07 02:15:18;;;;;;;9.77;6.97;;;-1.10;99.90;;;;;;5134257;27;20044;-72
2021/12/07 02:17:47;;;;;;;8.83;7.57;;;-1.10;99.90;;;;;;5133159;27;20503;-73
2021/12/07 02:20:15;;;;;;;9.20;7.87;;;-1.10;99.90;;;;;;5134452;27;20047;-73
2021/12/07 02:22:43;;;;;;;11.03;8.87;;;-1.20;99.90;;;;;;5134477;27;20487;-73
2021/12/07 02:25:13;;;;;;;11.33;8.73;;;-1.10;99.90;;;;;;5134171;27;20043;-73
2021/12/07 02:27:40;;;;;;;15.90;10.20;;;-1.10;99.90;;;;;;5134292;27;20487;-75
2021/12/07 02:30:11;;;;;;;19.27;10.87;;;-1.10;99.90;;;;;;5134288;27;20039;-76
2021/12/07 02:32:38;;;;;;;14.23;9.20;;;-1.10;99.90;;;;;;5134304;27;20043;-74
2021/12/07 02:35:09;;;;;;;12.27;8.37;;;-1.10;99.90;;;;;;5133650;27;20293;-74
2021/12/07 02:37:36;;;;;;;8.97;6.97;;;-1.10;99.90;;;;;;5134122;27;20479;-72
2021/12/07 02:40:06;;;;;;;12.03;10.60;;;-1.00;99.90;;;;;;5134373;27;20047;-74
2021/12/07 02:42:33;;;;;;;20.50;10.87;;;-1.10;99.90;;;;;;5134180;27;20043;-73
2021/12/07 02:45:00;;;;;;;15.73;9.03;;;-1.10;99.90;;;;;;5133917;27;20121;-74
2021/12/07 02:47:26;;;;;;;14.97;8.27;;;-1.10;99.90;;;;;;5133962;27;20047;-75
2021/12/07 02:49:53;;;;;;;6.87;4.80;;;-1.00;99.90;;;;;;5133861;27;20118;-75
2021/12/07 02:52:20;;;;;;;18.73;10.37;;;-1.00;99.90;;;;;;5133884;27;20487;-74
2021/12/07 02:54:49;;;;;;;15.17;9.93;;;-1.00;99.90;;;;;;5133202;27;20043;-74
2021/12/07 02:57:22;;;;;;;18.57;12.87;;;-1.00;99.90;;;;;;5133877;27;20047;-73
2021/12/07 02:59:58;;;;;;;13.70;8.80;;;-0.90;99.90;;;;;;5133918;27;20043;-73
2021/12/07 03:02:25;;;;;;;12.73;9.47;;;-0.90;99.90;;;;;;5133660;27;20039;-73
2021/12/07 03:05:00;;;;;;;11.90;8.93;;;-0.90;99.90;;;;;;5133280;27;20045;-72
2021/12/07 03:07:42;;;;;;;12.97;11.23;;;-0.90;99.90;;;;;;5133772;27;20055;-75
2021/12/07 03:26:36;;;;;;;22.17;13.23;;;-0.70;99.90;;;;;;5133421;27;20050;-75
2021/12/07 03:29:04;;;;;;;19.33;10.47;;;-0.70;99.90;;;;;;5133303;27;20106;-76
2021/12/07 03:31:31;;;;;;;17.43;13.20;;;-0.70;99.90;;;;;;5133578;27;20092;-74
2021/12/07 03:33:59;;;;;;;17.77;11.10;;;-0.70;99.90;;;;;;5133294;27;20115;-77
2021/12/07 03:36:26;;;;;;;15.90;11.33;;;-0.60;99.90;;;;;;5133156;27;20100;-73
2021/12/07 03:38:53;;;;;;;18.87;12.47;;;-0.60;99.90;;;;;;5132999;27;20107;-73
2021/12/07 03:41:21;;;;;;;19.47;11.73;;;-0.60;99.90;;;;;;5133153;27;20093;-72
2021/12/07 03:43:49;;;;;;;15.10;13.30;;;-0.60;99.90;;;;;;5132972;27;20043;-74
2021/12/07 03:46:18;;;;;;;20.87;14.07;;;-0.50;99.90;;;;;;5132511;27;20059;-73
2021/12/07 03:48:45;;;;;;;19.27;13.17;;;-0.50;99.90;;;;;;5133504;27;20479;-74
2021/12/07 03:51:12;;;;;;;19.47;12.20;;;-0.50;99.90;;;;;;5133009;27;20268;-75
2021/12/07 03:53:39;;;;;;;29.47;11.93;;;-0.40;99.90;;;;;;5132655;27;20100;-75
2021/12/07 03:56:08;;;;;;;28.00;15.10;;;-0.40;99.90;;;;;;5132378;27;20557;-75
2021/12/07 03:58:35;;;;;;;15.93;12.03;;;-0.40;99.90;;;;;;5132997;27;20131;-74
2021/12/07 04:01:05;;;;;;;17.83;13.53;;;-0.40;99.90;;;;;;5132934;27;20456;-74
2021/12/07 04:03:35;;;;;;;19.53;13.10;;;-0.40;99.90;;;;;;5132815;27;20551;-74
2021/12/07 04:06:06;;;;;;;22.87;11.90;;;-0.40;99.90;;;;;;5132173;27;20139;-74
2021/12/07 04:08:34;;;;;;;19.63;9.77;;;-0.30;99.90;;;;;;5132700;27;20050;-75
2021/12/07 04:11:02;;;;;;;16.57;11.07;;;-0.30;99.90;;;;;;5132906;27;20076;-75
2021/12/07 04:13:29;;;;;;;13.77;9.90;;;-0.30;99.90;;;;;;5132873;27;20043;-74
2021/12/07 04:15:57;;;;;;;25.03;16.27;;;-0.30;99.90;;;;;;5132068;27;20092;-77
2021/12/07 04:18:25;;;;;;;17.47;13.43;;;-0.30;99.90;;;;;;5132659;27;20411;-75
2021/12/07 04:20:53;;;;;;;29.63;14.83;;;-0.30;99.90;;;;;;5132663;27;20495;-75
2021/12/07 04:23:20;;;;;;;18.60;12.87;;;-0.20;99.90;;;;;;5133081;27;20043;-75
2021/12/07 04:25:47;;;;;;;24.37;12.17;;;-0.30;99.90;;;;;;5131781;27;20043;-74
2021/12/07 04:28:14;;;;;;;17.10;14.00;;;-0.20;99.90;;;;;;5133537;27;20043;-75
2021/12/07 04:30:43;;;;;;;21.03;13.83;;;-0.20;99.90;;;;;;5136816;27;20383;-74
2021/12/07 04:33:12;;;;;;;21.20;13.07;;;-0.20;99.90;;;;;;5136654;27;20096;-75
2021/12/07 04:35:42;;;;;;;19.97;13.20;;;-0.10;99.90;;;;;;5135875;27;20043;-74
2021/12/07 04:38:10;;;;;;;18.80;12.83;;;-0.20;99.90;;;;;;5136238;27;20395;-74
2021/12/07 04:40:37;;;;;;;22.67;15.80;;;-0.20;99.90;;;;;;5136595;27;20100;-75
2021/12/07 04:43:05;;;;;;;21.87;13.33;;;-0.20;99.90;;;;;;5136469;27;20043;-75
2021/12/07 04:45:39;;;;;;;18.33;13.23;;;-0.20;99.90;;;;;;5135919;27;20051;-73
2021/12/07 04:48:34;;;;;;;26.67;11.80;;;-0.10;99.90;;;;;;5136515;27;20050;-76
2021/12/07 04:59:17;;;;;;;22.20;11.80;;;-0.20;99.90;;;;;;5136306;27;20578;-71
2021/12/07 05:01:45;;;;;;;20.97;10.33;;;-0.20;99.90;;;;;;5136136;27;20100;-74
2021/12/07 05:04:16;;;;;;;28.73;14.93;;;-0.20;99.90;;;;;;5135413;27;20127;-75
2021/12/07 05:06:48;;;;;;;19.13;14.23;;;-0.20;99.90;;;;;;5138336;27;20082;-76
2021/12/07 05:09:51;;;;;;;21.67;16.57;;;-0.20;99.90;;;;;;5137876;27;20795;-73
2021/12/07 05:12:28;;;;;;;26.33;15.97;;;-0.20;99.90;;;;;;5136865;27;20039;-76
2021/12/07 05:15:02;;;;;;;18.90;14.97;;;-0.20;99.90;;;;;;5138033;27;20043;-76
2021/12/07 05:17:56;;;;;;;25.33;15.57;;;-0.20;99.90;;;;;;5141908;27;20134;-76
2021/12/07 05:40:06;;;;;;;23.33;16.43;;;-0.30;99.90;;;;;;5128997;27;20092;-74
2021/12/07 05:42:36;;;;;;;26.13;14.87;;;-0.40;99.90;;;;;;5135353;27;20047;-75
2021/12/07 05:45:03;;;;;;;20.40;10.60;;;-0.40;99.90;;;;;;5134717;27;20118;-76
2021/12/07 05:47:30;;;;;;;20.33;13.87;;;-0.40;99.90;;;;;;5135435;27;20095;-74
2021/12/07 05:49:56;;;;;;;19.70;16.20;;;-0.40;99.90;;;;;;5135286;27;20046;-73
2021/12/07 05:52:23;;;;;;;19.37;14.20;;;-0.50;99.90;;;;;;5135006;27;20476;-75
2021/12/07 05:54:50;;;;;;;16.60;10.37;;;-0.50;99.90;;;;;;5134451;27;20047;-73
2021/12/07 05:57:17;;;;;;;14.90;9.17;;;-0.50;99.90;;;;;;5135345;27;20043;-75
2021/12/07 05:59:45;;;;;;;19.03;10.60;;;-0.50;99.90;;;;;;5134984;27;20074;-75
2021/12/07 06:02:12;;;;;;;23.10;13.87;;;-0.60;99.90;;;;;;5135221;27;20043;-75
2021/12/07 06:04:38;;;;;;;20.80;11.13;;;-0.60;99.90;;;;;;5134598;27;20047;-73
2021/12/07 06:07:05;;;;;;;25.17;17.53;;;-0.60;99.90;;;;;;5134886;27;20047;-71
2021/12/07 06:09:32;;;;;;;15.40;13.20;;;-0.70;99.90;;;;;;5135116;27;20039;-73
2021/12/07 06:11:59;;;;;;;25.10;14.77;;;-0.70;99.90;;;;;;5134645;27;20047;-73
2021/12/07 06:14:31;;;;;;;21.40;13.77;;;-0.80;99.90;;;;;;5135370;27;20047;-75
2021/12/07 06:16:59;;;;;;;22.07;13.00;;;-0.80;99.90;;;;;;5135004;27;20487;-74
2021/12/07 06:19:26;;;;;;;19.40;11.97;;;-0.90;99.90;;;;;;5134647;27;20039;-73
2021/12/07 06:21:53;;;;;;;16.37;14.00;;;-0.90;99.90;;;;;;5134503;27;20077;-70
2021/12/07 06:24:19;;;;;;;22.93;15.37;;;-0.80;99.90;;;;;;5134185;27;20055;-73
2021/12/07 06:26:46;;;;;;;27.43;15.13;;;-0.70;99.90;;;;;;5134483;27;20096;-73
2021/12/07 06:29:13;;;;;;;19.80;12.90;;;-0.70;99.90;;;;;;5134755;27;20047;-75
2021/12/07 06:31:40;;;;;;;24.50;14.10;;;-0.80;99.90;;;;;;5134668;27;20047;-75
2021/12/07 06:34:10;;;;;;;22.37;13.40;;;-0.70;99.90;;;;;;5133824;27;20043;-77
2021/12/07 06:36:37;;;;;;;15.97;11.70;;;-0.80;99.90;;;;;;5134449;27;20089;-75
2021/12/07 06:39:04;;;;;;;25.27;13.17;;;-0.80;99.90;;;;;;5135286;27;20139;-74
2021/12/07 06:41:31;;;;;;;20.13;12.73;;;-0.80;99.90;;;;;;5134527;27;20051;-72
2021/12/07 06:43:58;;;;;;;25.80;15.53;;;-0.80;99.90;;;;;;5133640;27;20039;-73
2021/12/07 06:46:24;;;;;;;24.30;15.67;;;-0.80;99.90;;;;;;5134327;27;20044;-73
2021/12/07 06:48:51;;;;;;;19.20;13.80;;;-0.80;99.90;;;;;;5134419;27;20055;-74
2021/12/07 06:51:19;;;;;;;13.10;11.70;;;-0.80;99.90;;;;;;5135116;27;20043;-77
2021/12/07 06:53:46;;;;;;;23.67;11.83;;;-0.80;99.90;;;;;;5134206;27;20047;-74
2021/12/07 06:56:13;;;;;;;16.20;11.57;;;-0.80;99.90;;;;;;5133451;27;20039;-74
2021/12/07 06:58:40;;;;;;;18.60;12.27;;;-0.80;99.90;;;;;;5133691;27;20061;-73
2021/12/07 07:01:10;;;;;;;18.93;11.53;;;-0.70;99.90;;;;;;5133790;27;20092;-74
2021/12/07 07:03:37;;;;;;;19.87;13.30;;;-0.80;99.90;;;;;;5133790;27;20478;-71
2021/12/07 07:06:04;;;;;;;13.87;9.40;;;-0.80;99.90;;;;;;5132962;27;20043;-74
2021/12/07 07:08:32;;;;;;;11.63;8.50;;;-0.80;99.90;;;;;;5135797;27;20115;-80
2021/12/07 07:11:00;;;;;;;24.67;15.03;;;-0.80;99.90;;;;;;5138571;27;20051;-79
2021/12/07 07:13:26;;;;;;;18.03;11.93;;;-0.80;99.90;;;;;;5136133;27;20043;-78
2021/12/07 07:15:53;;;;;;;17.97;10.40;;;-0.80;99.90;;;;;;5136053;27;20039;-79
2021/12/07 07:18:20;;;;;;;13.40;11.07;;;-0.80;99.90;;;;;;5134194;27;20099;-75
2021/12/07 07:20:46;;;;;;;21.80;11.63;;;-0.80;99.90;;;;;;5133385;27;20487;-75
2021/12/07 07:23:13;;;;;;;16.33;11.70;;;-0.80;99.90;;;;;;5133599;27;20043;-73
2021/12/07 07:25:41;;;;;;;13.63;10.83;;;-0.80;99.90;;;;;;5132975;27;20047;-73
2021/12/07 07:28:08;;;;;;;17.70;12.43;;;-0.80;99.90;;;;;;5133527;27;20043;-71
2021/12/07 07:30:34;;;;;;;17.57;10.10;;;-0.70;99.90;;;;;;5133270;27;20043;-74
2021/12/07 07:33:01;;;;;;;21.57;12.17;;;-0.70;99.90;;;;;;5133145;27;20171;-72
2021/12/07 07:35:29;;;;;;;14.23;11.13;;;-0.60;99.90;;;;;;5133032;27;20047;-75
2021/12/07 07:37:56;;;;;;;13.03;10.70;;;-0.60;99.90;;;;;;5133483;27;20051;-77
2021/12/07 07:40:24;;;;;;;15.90;10.77;;;-0.60;99.90;;;;;;5133586;27;20088;-77
2021/12/07 07:42:52;;;;;;;22.00;11.00;;;-0.60;99.90;;;;;;5133307;27;20410;-77
2021/12/07 07:45:19;;;;;;;23.00;13.43;;;-0.60;99.90;;;;;;5132685;27;20551;-76
2021/12/07 07:47:46;;;;;;;16.13;8.80;;;-0.60;99.90;;;;;;5132960;27;20487;-77
2021/12/07 07:50:15;;;;;;;16.67;10.80;;;-0.50;99.90;;;;;;5133181;27;20470;-76
2021/12/07 07:52:42;;;;;;;19.70;11.97;;;-0.60;99.90;;;;;;5133329;27;20084;-75
2021/12/07 07:55:10;;;;;;;17.67;11.93;;;-0.50;99.90;;;;;;5132230;27;20460;-75
2021/12/07 07:57:37;;;;;;;19.03;13.50;;;-0.50;99.90;;;;;;5133139;27;20043;-75
2021/12/07 08:00:08;;;;;;;16.23;12.10;;;-0.50;99.90;;;;;;5132870;27;20091;-73
2021/12/07 08:02:35;;;;;;;17.40;11.37;;;-0.50;99.90;;;;;;5132630;27;20096;-74
2021/12/07 08:05:01;;;;;;;17.30;10.00;;;-0.40;99.90;;;;;;5132521;27;20047;-76
2021/12/07 08:07:29;;;;;;;14.23;10.93;;;-0.40;99.90;;;;;;5133367;27;20047;-80
2021/12/07 08:09:56;;;;;;;14.80;10.17;;;-0.40;99.90;;;;;;5135220;27;20047;-76
2021/12/07 08:12:22;;;;;;;22.67;12.33;;;-0.30;99.90;;;;;;5133125;27;20047;-75
2021/12/07 08:14:49;;;;;;;12.47;10.20;;;-0.30;99.90;;;;;;5132881;27;20051;-77
2021/12/07 08:17:18;;;;;;;14.57;9.53;;;-0.40;99.90;;;;;;5135235;27;20039;-77
2021/12/07 08:19:44;;;;;;;20.53;13.63;;;-0.40;99.90;;;;;;5134207;27;20053;-77
2021/12/07 08:22:11;;;;;;;14.97;11.63;;;-0.40;99.90;;;;;;5133298;27;20087;-76
2021/12/07 08:24:38;;;;;;;19.03;12.10;;;-0.30;99.90;;;;;;5132073;27;20043;-75
2021/12/07 08:27:04;;;;;;;19.87;12.60;;;-0.20;99.90;;;;;;5132641;27;20395;-75
2021/12/07 08:29:31;;;;;;;15.20;12.07;;;-0.20;99.90;;;;;;5132373;27;20047;-74
2021/12/07 08:31:58;;;;;;;26.50;13.93;;;-0.20;99.90;;;;;;5132495;27;20043;-75
2021/12/07 08:34:26;;;;;;;18.33;12.03;;;-0.20;99.90;;;;;;5132436;27;20043;-72
2021/12/07 08:36:52;;;;;;;21.27;12.37;;;-0.20;99.90;;;;;;5132519;27;20092;-73
2021/12/07 08:39:19;;;;;;;18.63;12.00;;;-0.20;99.90;;;;;;5132485;27;20047;-73
2021/12/07 08:41:46;;;;;;;15.40;11.83;;;-0.20;99.90;;;;;;5132258;27;20487;-74
2021/12/07 08:44:12;;;;;;;16.03;12.93;;;-0.20;99.90;;;;;;5131955;27;20055;-75
2021/12/07 08:46:40;;;;;;;15.97;11.90;;;-0.10;99.90;;;;;;5132378;27;20552;-79
2021/12/07 08:49:06;;;;;;;22.27;13.30;;;-0.10;99.90;;;;;;5133054;27;20635;-77
2021/12/07 08:51:34;;;;;;;21.83;12.80;;;-0.10;99.90;;;;;;5132466;27;20047;-77
2021/12/07 08:54:17;;;;;;;20.00;11.80;;;-0.10;99.90;;;;;;5132615;27;20103;-78
2021/12/07 08:59:39;;;;;;;16.97;13.37;;;0.00;99.90;;;;;;5132180;27;20057;-73
2021/12/07 09:02:06;;;;;;;17.73;13.00;;;0.00;99.90;;;;;;5132755;27;20144;-75
2021/12/07 09:04:33;;;;;;;22.03;14.43;;;0.00;99.90;;;;;;5131856;27;20487;-74
2021/12/07 09:07:01;;;;;;;24.13;14.63;;;0.00;99.90;;;;;;5131801;27;20047;-75
2021/12/07 09:09:28;;;;;;;19.47;12.27;;;0.00;99.90;;;;;;5132449;27;20046;-74
2021/12/07 09:11:58;;;;;;;22.27;11.30;;;0.00;99.90;;;;;;5131970;27;20124;-75
2021/12/07 09:14:27;;;;;;;17.10;11.93;;;0.00;99.90;;;;;;5131880;27;20505;-73
2021/12/07 09:16:54;;;;;;;17.47;11.87;;;0.00;99.90;;;;;;5135630;27;20099;-75
2021/12/07 09:19:21;;;;;;;16.07;12.93;;;0.00;99.90;;;;;;5135846;27;20104;-75
2021/12/07 09:21:47;;;;;;;17.77;12.20;;;0.00;99.90;;;;;;5135912;27;20053;-74
2021/12/07 09:24:15;;;;;;;26.80;13.97;;;0.00;99.90;;;;;;5136790;27;20821;-79
2021/12/07 09:26:42;;;;;;;17.73;11.87;;;0.00;99.90;;;;;;5137067;27;20050;-76
2021/12/07 09:29:09;;;;;;;16.93;11.73;;;0.10;99.90;;;;;;5136567;27;20047;-77
2021/12/07 09:31:37;;;;;;;19.83;12.17;;;0.10;99.90;;;;;;5138145;27;20050;-78
2021/12/07 09:34:04;;;;;;;20.40;12.13;;;0.10;99.90;;;;;;5137993;27;20048;-77
2021/12/07 09:36:38;;;;;;;17.30;11.43;;;0.10;99.90;;;;;;5137629;27;20497;-79
2021/12/07 09:39:06;;;;;;;29.97;15.60;;;0.10;99.90;;;;;;5138042;27;20090;-78
2021/12/07 09:41:35;;;;;;;23.97;15.33;;;0.10;99.90;;;;;;5135393;27;20112;-76
2021/12/07 09:44:03;;;;;;;23.37;12.47;;;0.20;99.90;;;;;;5134885;27;20047;-76
2021/12/07 09:46:30;;;;;;;21.83;13.00;;;0.20;99.90;;;;;;5136401;27;20095;-80
2021/12/07 09:48:56;;;;;;;19.93;12.33;;;0.10;99.90;;;;;;5134128;27;20082;-73
2021/12/07 09:51:26;;;;;;;23.37;14.63;;;0.10;99.90;;;;;;5135240;27;20043;-72
2021/12/07 09:53:54;;;;;;;20.70;13.87;;;0.10;99.90;;;;;;5135064;27;20043;-77
2021/12/07 09:56:22;;;;;;;19.87;14.57;;;0.10;99.90;;;;;;5134827;27;20050;-75
2021/12/07 09:58:53;;;;;;;28.27;14.50;;;0.20;99.90;;;;;;5135099;27;20054;-76
2021/12/07 10:01:19;;;;;;;21.47;12.00;;;0.10;99.90;;;;;;5135482;27;20067;-76
2021/12/07 10:03:47;;;;;;;22.83;14.53;;;0.10;99.90;;;;;;5135254;27;20043;-76
2021/12/07 10:06:14;;;;;;;22.80;11.93;;;0.10;99.90;;;;;;5134454;27;20039;-76
2021/12/07 10:08:42;;;;;;;24.27;13.00;;;0.00;99.90;;;;;;5134990;27;20043;-76
2021/12/07 10:11:10;;;;;;;17.30;12.30;;;0.00;99.90;;;;;;5134997;27;20134;-71
2021/12/07 10:13:40;;;;;;;20.73;13.57;;;0.00;99.90;;;;;;5134833;27;20039;-77
2021/12/07 10:16:10;;;;;;;17.93;11.40;;;0.00;99.90;;;;;;5135180;27;20049;-76
2021/12/07 10:18:38;;;;;;;21.10;14.17;;;0.00;99.90;;;;;;5134796;27;20051;-75
2021/12/07 10:21:10;;;;;;;23.07;12.43;;;0.10;99.90;;;;;;5134575;27;20058;-75
2021/12/07 10:23:39;;;;;;;20.42;12.70;;;0.20;99.90;;;;;;5134864;27;20043;-76
2021/12/07 10:26:08;;;;;;;21.80;13.47;;;0.20;99.90;;;;;;5133673;27;20096;-73
2021/12/07 10:28:38;;;;;;;22.30;13.83;;;0.20;99.90;;;;;;5134770;27;20112;-74
2021/12/07 10:31:27;;;;;;;24.00;13.87;;;0.20;99.90;;;;;;5136860;27;20490;-73
2021/12/07 10:33:58;;;;;;;19.37;13.30;;;0.20;99.90;;;;;;5138378;27;20050;-74
2021/12/07 10:36:28;;;;;;;17.85;9.23;;;0.20;99.90;;;;;;5136619;27;20047;-75
2021/12/07 10:39:01;;;;;;;14.43;9.67;;;0.20;99.90;;;;;;5135272;27;20495;-72
2021/12/07 10:41:32;;;;;;;19.33;12.17;;;0.10;99.90;;;;;;5136141;27;20043;-75
2021/12/07 10:44:04;;;;;;;17.63;12.83;;;0.10;99.90;;;;;;5135811;27;20054;-74
2021/12/07 10:46:36;;;;;;;21.40;14.63;;;0.10;99.90;;;;;;5145385;27;20060;-87
2021/12/07 10:49:22;;;;;;;23.57;14.40;;;0.10;99.90;;;;;;5156525;27;20047;-74
2021/12/07 10:51:59;;;;;;;23.77;12.17;;;0.20;99.90;;;;;;5136873;27;20069;-76
2021/12/07 10:54:29;;;;;;;15.87;11.13;;;0.20;99.90;;;;;;5133344;27;20099;-81
2021/12/07 10:56:56;;;;;;;24.63;14.33;;;0.20;99.90;;;;;;5135658;27;20461;-76
2021/12/07 10:59:23;;;;;;;19.20;12.93;;;0.20;99.90;;;;;;5133733;27;20064;-77
2021/12/07 11:01:53;;;;;;;26.27;15.57;;;0.30;99.90;;;;;;5133886;27;20084;-75
2021/12/07 11:04:24;;;;;;;19.77;13.10;;;0.30;99.90;;;;;;5135501;27;20053;-76
2021/12/07 11:07:16;;;;;;;;;;;0.30;99.90;;;;;;5137995;27;20039;-75
2021/12/07 11:09:46;;;;;;;18.63;12.93;;;0.40;99.90;;;;;;5133688;27;19920;-75
2021/12/07 11:12:15;;;;;;;21.47;12.33;;;0.40;99.90;;;;;;5133705;27;20465;-75
2021/12/07 11:14:49;;;;;;;16.20;12.63;;;0.40;99.90;;;;;;5132879;27;20534;-73
2021/12/07 11:17:20;;;;;;;24.87;14.80;;;0.30;99.90;;;;;;5142313;27;20043;-75
2021/12/07 11:19:47;;;;;;;24.58;13.23;;;0.30;99.90;;;;;;5141908;27;20047;-74
2021/12/07 11:22:17;;;;;;;29.93;15.63;;;0.30;99.90;;;;;;5136004;27;20043;-75
2021/12/07 11:24:46;;;;;;;28.50;14.63;;;0.30;99.90;;;;;;5133225;27;20047;-75
2021/12/07 11:30:05;;;;;;;24.27;15.03;;;0.30;99.90;;;;;;5133355;27;20131;-75
2021/12/07 11:32:34;;;;;;;25.58;13.68;;;0.30;99.90;;;;;;5133203;27;20062;-74
2021/12/07 11:35:13;;;;;;;20.23;13.30;;;0.30;99.90;;;;;;5132698;27;20103;-74
2021/12/07 11:37:41;;;;;;;22.90;13.40;;;0.30;99.90;;;;;;5132613;27;20050;-75
2021/12/07 11:40:10;;;;;;;25.73;13.93;;;0.20;99.90;;;;;;5133059;27;20043;-74
2021/12/07 11:42:41;;;;;;;21.60;14.33;;;0.20;99.90;;;;;;5132836;27;20509;-74
2021/12/07 11:45:11;;;;;;;20.15;14.68;;;0.30;99.90;;;;;;5132680;27;20053;-75
2021/12/07 11:47:41;;;;;;;24.13;15.63;;;0.30;99.90;;;;;;5132923;27;20388;-75
2021/12/07 11:50:17;;;;;;;25.93;15.93;;;0.30;99.90;;;;;;5132982;27;20059;-73
2021/12/07 11:52:45;;;;;;;14.93;13.33;;;0.30;99.90;;;;;;5132954;27;20179;-75
2021/12/07 11:55:12;;;;;;;15.53;9.80;;;0.30;99.90;;;;;;5132213;27;20051;-75
2021/12/07 11:57:41;;;;;;;21.20;13.57;;;0.30;99.90;;;;;;5132723;27;20046;-76
2021/12/07 12:00:13;;;;;;;22.70;10.93;;;0.30;99.90;;;;;;5132991;27;20051;-77
2021/12/07 12:02:40;;;;;;;;;;;0.30;99.90;;;;;;5133494;27;20057;-76
2021/12/07 12:05:09;;;;;;;21.20;12.17;;;0.30;99.90;;;;;;5132520;27;19927;-75
2021/12/07 12:07:36;;;;;;;23.03;13.80;;;0.40;99.90;;;;;;5132790;27;20043;-73
2021/12/07 12:10:04;;;;;;;20.63;14.27;;;0.40;99.90;;;;;;5132734;27;20047;-77
2021/12/07 12:12:37;;;;;;;22.37;12.30;;;0.40;99.90;;;;;;5133799;27;20039;-79
2021/12/07 12:15:18;;;;;;;16.30;13.43;;;0.40;99.90;;;;;;5134581;27;20448;-74
2021/12/07 12:18:02;;;;;;;17.43;12.07;;;0.40;99.90;;;;;;5132432;27;20111;-73
2021/12/07 12:20:42;;;;;;;24.77;15.17;;;0.40;99.90;;;;;;5133517;27;20043;-77
2021/12/07 12:23:18;;;;;;;27.50;14.37;;;0.50;99.90;;;;;;5133246;27;20049;-77
2021/12/07 12:25:54;;;;;;;25.87;14.00;;;0.50;99.90;;;;;;5134481;27;20043;-76
2021/12/07 12:28:25;;;;;;;15.83;12.00;;;0.50;99.90;;;;;;5132597;27;20095;-76
2021/12/07 12:30:51;;;;;;;23.65;17.00;;;0.40;99.90;;;;;;5132488;27;20043;-73
2021/12/07 12:33:23;;;;;;;28.80;17.23;;;0.40;99.90;;;;;;5132960;27;20069;-81
2021/12/07 12:35:54;;;;;;;24.73;15.25;;;0.40;99.90;;;;;;5133983;27;20047;-77
2021/12/07 12:38:24;;;;;;;19.20;13.45;;;0.50;99.90;;;;;;5134215;27;20054;-77
2021/12/07 12:40:57;;;;;;;26.17;13.57;;;0.40;99.90;;;;;;5132968;27;20051;-75
2021/12/07 12:43:35;;;;;;;18.23;13.30;;;0.40;99.90;;;;;;5132342;27;20096;-72
2021/12/07 12:46:05;;;;;;;25.43;13.10;;;0.40;99.90;;;;;;5131566;27;20428;-72
2021/12/07 12:48:33;;;;;;;29.33;17.43;;;0.50;99.90;;;;;;5133001;27;20039;-80
2021/12/07 12:51:00;;;;;;;24.60;13.90;;;0.60;99.90;;;;;;5137157;27;20047;-76
2021/12/07 12:53:30;;;;;;;11.37;8.77;;;0.60;99.90;;;;;;5136412;27;20051;-76
2021/12/07 12:55:59;;;;;;;21.13;13.37;;;0.60;99.90;;;;;;5135571;27;20047;-75
2021/12/07 12:58:38;;;;;;;25.90;15.10;;;0.50;99.90;;;;;;5136767;27;20043;-75
2021/12/07 13:01:21;;;;;;;20.73;12.10;;;0.40;99.90;;;;;;5136878;27;20126;-75
2021/12/07 13:04:08;;;;;;;23.10;15.27;;;0.50;99.90;;;;;;5136477;27;20118;-76
2021/12/07 13:06:47;;;;;;;25.90;14.63;;;0.50;99.90;;;;;;5136108;27;20039;-74
2021/12/07 13:09:26;;;;;;;19.90;12.40;;;0.50;99.90;;;;;;5139284;27;20089;-80
2021/12/07 13:11:57;;;;;;;20.23;14.77;;;0.50;99.90;;;;;;5139632;27;20050;-81
2021/12/07 13:14:52;;;;;;;23.40;13.10;;;0.50;99.90;;;;;;5145508;27;20107;-81
2021/12/07 13:17:23;;;;;;;27.57;14.53;;;0.60;99.90;;;;;;5138353;27;20051;-76
2021/12/07 13:20:16;;;;;;;22.88;12.45;;;0.50;99.90;;;;;;5136337;27;20183;-76
2021/12/07 13:22:46;;;;;;;20.10;12.10;;;0.50;99.90;;;;;;5139949;27;20143;-75
2021/12/07 13:25:15;;;;;;;20.97;14.70;;;0.50;99.90;;;;;;5137060;27;20422;-77
2021/12/07 13:28:21;;;;;;;23.77;15.10;;;0.40;99.90;;;;;;5136440;27;20043;-73
2021/12/07 13:31:15;;;;;;;16.27;9.90;;;0.40;99.90;;;;;;5135722;27;20084;-74
2021/12/07 13:33:44;;;;;;;18.80;13.57;;;0.50;99.90;;;;;;5135275;27;20449;-76
2021/12/07 13:36:38;;;;;;;17.80;8.97;;;0.50;99.90;;;;;;5135018;27;20046;-74
2021/12/07 13:39:31;;;;;;;19.37;13.47;;;0.50;99.90;;;;;;5121580;27;20413;-76
2021/12/07 13:42:00;;;;;;;22.40;13.53;;;0.50;99.90;;;;;;5136238;27;20039;-76
2021/12/07 13:44:28;;;;;;;18.90;12.70;;;0.40;99.90;;;;;;5137576;27;20047;-75
2021/12/07 13:47:01;;;;;;;23.70;12.57;;;0.60;99.90;;;;;;5137428;27;20498;-75
2021/12/07 13:49:28;;;;;;;21.30;11.93;;;0.60;99.90;;;;;;5135347;27;20047;-74
2021/12/07 13:51:56;;;;;;;16.20;10.30;;;0.50;99.90;;;;;;5135022;27;20043;-75
2021/12/07 13:54:23;;;;;;;23.00;15.00;;;0.50;99.90;;;;;;5134382;27;20491;-75
2021/12/07 13:56:55;;;;;;;15.13;10.60;;;0.50;99.90;;;;;;5135452;27;20047;-75
2021/12/07 13:59:23;;;;;;;22.88;12.20;;;0.50;99.90;;;;;;5135346;27;20050;-77
2021/12/07 14:01:52;;;;;;;19.70;10.83;;;0.40;99.90;;;;;;5134901;27;20135;-77
2021/12/07 14:04:20;;;;;;;20.10;12.70;;;0.40;99.90;;;;;;5134554;27;20834;-77
2021/12/07 14:06:48;;;;;;;24.87;11.87;;;0.30;99.90;;;;;;5135011;27;20171;-77